Time;durP1;ratioP1;P1;durP2;ratioP2;P2;SDS_P1;SDS_P2;PMS_P1;PMS_P2;Temp;Humidity;BMP_temperature;BMP_pressure;BME280_temperature;BME280_humidity;BME280_pressure;Samples;Min_cycle;Max_cycle;Signal;HPM_P1;HPM_P2
2022/05/18 00:00:41;;;;;;;15.63;14.13;;;16.50;99.90;;;;;;2087564;28;20060;-70
2022/05/18 00:01:42;;;;;;;15.40;13.90;;;16.50;99.90;;;;;;2087921;28;20059;-70
2022/05/18 00:02:43;;;;;;;14.43;13.05;;;16.50;99.90;;;;;;2087796;28;20344;-69
2022/05/18 00:03:45;;;;;;;15.70;14.10;;;16.40;99.90;;;;;;2087799;28;20498;-69
2022/05/18 00:04:46;;;;;;;17.60;14.25;;;16.50;99.90;;;;;;2087685;28;20025;-69
2022/05/18 00:05:46;;;;;;;16.27;13.63;;;16.40;99.90;;;;;;2087518;28;20155;-69
2022/05/18 00:06:47;;;;;;;14.93;13.43;;;16.40;99.90;;;;;;2087683;28;20088;-69
2022/05/18 00:07:48;;;;;;;14.55;13.05;;;16.40;99.90;;;;;;2087777;28;20025;-69
2022/05/18 00:08:48;;;;;;;17.35;14.50;;;16.40;99.90;;;;;;2087806;28;20028;-69
2022/05/18 00:09:51;;;;;;;15.73;14.25;;;16.40;99.90;;;;;;2087746;28;20052;-70
2022/05/18 00:10:51;;;;;;;15.50;14.00;;;16.40;99.90;;;;;;2086872;28;20601;-69
2022/05/18 00:11:52;;;;;;;15.68;14.00;;;16.40;99.90;;;;;;2087245;28;20083;-70
2022/05/18 00:12:53;;;;;;;15.35;13.85;;;16.40;99.90;;;;;;2087707;28;20585;-70
2022/05/18 00:13:54;;;;;;;14.88;13.38;;;16.30;99.90;;;;;;2087776;28;20109;-70
2022/05/18 00:14:55;;;;;;;15.30;13.70;;;16.30;99.90;;;;;;2087067;28;20025;-70
2022/05/18 00:15:56;;;;;;;15.50;13.93;;;16.30;99.90;;;;;;2086931;28;20097;-71
2022/05/18 00:17:02;;;;;;;14.80;13.40;;;16.30;99.90;;;;;;2087801;28;20029;-71
2022/05/18 00:18:04;;;;;;;15.20;13.70;;;16.30;99.90;;;;;;2087823;28;20927;-71
2022/05/18 00:19:05;;;;;;;15.20;13.70;;;16.30;99.90;;;;;;2087759;28;20160;-71
2022/05/18 00:20:07;;;;;;;15.02;13.63;;;16.30;99.90;;;;;;2087727;28;20071;-71
2022/05/18 00:21:08;;;;;;;14.77;13.38;;;16.30;99.90;;;;;;2087814;28;20528;-70
2022/05/18 00:22:09;;;;;;;14.95;13.45;;;16.30;99.90;;;;;;2087068;28;20072;-70
2022/05/18 00:23:11;;;;;;;15.90;14.30;;;16.20;99.90;;;;;;2078937;28;20060;-68
2022/05/18 00:24:11;;;;;;;14.98;13.57;;;16.20;99.90;;;;;;2086800;28;20038;-68
2022/05/18 00:25:12;;;;;;;15.32;13.82;;;16.20;99.90;;;;;;2087381;28;20075;-69
2022/05/18 00:26:13;;;;;;;15.35;13.82;;;16.10;99.90;;;;;;2087657;28;20063;-69
2022/05/18 00:27:14;;;;;;;15.35;13.75;;;16.10;99.90;;;;;;2087753;28;20558;-69
2022/05/18 00:28:14;;;;;;;17.67;13.65;;;16.10;99.90;;;;;;2086939;28;20113;-69
2022/05/18 00:29:15;;;;;;;15.82;14.20;;;16.10;99.90;;;;;;2086981;28;20036;-69
2022/05/18 00:30:18;;;;;;;15.45;13.85;;;16.10;99.90;;;;;;2087025;28;20691;-69
2022/05/18 00:31:19;;;;;;;15.55;13.95;;;16.10;99.90;;;;;;2079048;28;20056;-70
2022/05/18 00:32:20;;;;;;;15.05;13.60;;;16.10;99.90;;;;;;2086867;28;20040;-70
2022/05/18 00:33:20;;;;;;;15.43;13.85;;;16.00;99.90;;;;;;2086939;28;20032;-69
2022/05/18 00:34:21;;;;;;;15.07;13.57;;;16.00;99.90;;;;;;2087671;28;20021;-68
2022/05/18 00:35:25;;;;;;;14.85;13.35;;;16.00;99.90;;;;;;2086817;28;20115;-70
2022/05/18 00:36:25;;;;;;;15.32;13.82;;;16.00;99.90;;;;;;2087133;28;20479;-70
2022/05/18 00:37:26;;;;;;;16.40;13.93;;;16.00;99.90;;;;;;2087780;28;20056;-70
2022/05/18 00:38:27;;;;;;;15.13;13.65;;;16.00;99.90;;;;;;2087677;28;20094;-69
2022/05/18 00:39:28;;;;;;;15.25;13.75;;;16.00;99.90;;;;;;2087708;28;20034;-70
2022/05/18 00:40:29;;;;;;;16.17;14.43;;;16.00;99.90;;;;;;2087555;28;20116;-68
2022/05/18 00:41:30;;;;;;;16.10;14.55;;;15.90;99.90;;;;;;2087713;28;20021;-69
2022/05/18 00:42:30;;;;;;;16.40;14.80;;;15.90;99.90;;;;;;2087662;28;20476;-69
2022/05/18 00:43:31;;;;;;;18.92;15.07;;;15.90;99.90;;;;;;2087642;28;20064;-71
2022/05/18 00:44:32;;;;;;;16.08;14.57;;;15.90;99.90;;;;;;2087514;28;20029;-71
2022/05/18 00:45:32;;;;;;;15.32;13.80;;;15.90;99.90;;;;;;2087462;28;20485;-71
2022/05/18 00:46:33;;;;;;;16.30;14.70;;;15.90;99.90;;;;;;2087805;28;20171;-70
2022/05/18 00:47:34;;;;;;;15.65;14.05;;;15.90;99.90;;;;;;2087788;28;20094;-70
2022/05/18 00:48:35;;;;;;;16.00;14.40;;;15.80;99.90;;;;;;2087661;28;20044;-70
2022/05/18 00:49:36;;;;;;;15.35;13.93;;;15.80;99.90;;;;;;2086724;28;20047;-70
2022/05/18 00:50:42;;;;;;;16.20;14.60;;;15.80;99.90;;;;;;2087034;28;20108;-70
2022/05/18 00:51:49;;;;;;;17.88;14.90;;;15.80;99.90;;;;;;2087111;28;20477;-71
2022/05/18 00:53:00;;;;;;;15.82;14.32;;;15.80;99.90;;;;;;2079605;28;20033;-71
2022/05/18 00:54:12;;;;;;;15.48;13.88;;;15.80;99.90;;;;;;2087182;28;20037;-71
2022/05/18 00:55:16;;;;;;;15.52;14.02;;;15.70;99.90;;;;;;2087452;28;20391;-71
2022/05/18 00:56:23;;;;;;;15.68;14.15;;;15.70;99.90;;;;;;2087752;28;20033;-70
2022/05/18 00:57:34;;;;;;;15.80;14.18;;;15.70;99.90;;;;;;2087767;28;20078;-70
2022/05/18 00:58:34;;;;;;;;;;;15.70;99.90;;;;;;2088158;28;20025;-70
2022/05/18 00:59:48;;;;;;;15.90;14.30;;;15.60;99.90;;;;;;2087560;28;19959;-70
2022/05/18 01:00:51;;;;;;;16.38;14.68;;;15.60;99.90;;;;;;2087555;28;20152;-70
2022/05/18 01:01:52;;;;;;;16.15;14.45;;;15.60;99.90;;;;;;2087607;28;20025;-69
2022/05/18 01:02:59;;;;;;;16.20;14.60;;;15.60;99.90;;;;;;2087379;28;20025;-71
2022/05/18 01:04:02;;;;;;;16.35;14.75;;;15.60;99.90;;;;;;2087759;28;20491;-70
2022/05/18 01:05:06;;;;;;;18.63;15.48;;;15.50;99.90;;;;;;2088897;28;20021;-70
2022/05/18 01:06:16;;;;;;;16.48;14.98;;;15.50;99.90;;;;;;2088465;28;20377;-70
2022/05/18 01:07:26;;;;;;;16.90;15.20;;;15.50;99.90;;;;;;2088603;28;20071;-70
2022/05/18 01:09:00;;;;;;;17.27;15.43;;;15.50;99.90;;;;;;2089210;28;20033;-70
2022/05/18 01:10:00;;;;;;;17.60;15.75;;;15.50;99.90;;;;;;2081410;28;20112;-70
2022/05/18 01:11:01;;;;;;;17.05;15.35;;;15.40;99.90;;;;;;2088350;28;20603;-70
2022/05/18 01:12:03;;;;;;;16.48;14.88;;;15.40;99.90;;;;;;2088395;28;20074;-70
2022/05/18 01:13:04;;;;;;;17.75;15.85;;;15.40;99.90;;;;;;2088868;28;20112;-69
2022/05/18 01:14:20;;;;;;;18.38;16.27;;;15.40;99.90;;;;;;2088677;28;20082;-69
2022/05/18 01:15:22;;;;;;;17.35;15.65;;;15.40;99.90;;;;;;2088603;28;20033;-70
2022/05/18 01:16:25;;;;;;;17.38;15.68;;;15.40;99.90;;;;;;2088274;28;20021;-70
2022/05/18 01:17:31;;;;;;;18.50;16.50;;;15.30;99.90;;;;;;2088399;28;20025;-70
2022/05/18 01:18:32;;;;;;;17.70;15.80;;;15.30;99.90;;;;;;2088378;28;20041;-70
2022/05/18 01:20:00;;;;;;;18.50;16.67;;;15.30;99.90;;;;;;2088842;28;20090;-70
2022/05/18 01:21:01;;;;;;;18.23;16.27;;;15.30;99.90;;;;;;2079935;28;20068;-70
2022/05/18 01:22:32;;;;;;;19.27;16.42;;;15.30;99.90;;;;;;2080036;28;20409;-70
2022/05/18 01:24:02;;;;;;;18.15;16.35;;;15.30;99.90;;;;;;2084482;28;20058;-71
2022/05/18 01:25:14;;;;;;;18.00;16.10;;;15.20;99.90;;;;;;2088336;28;20049;-71
2022/05/18 01:26:40;;;;;;;17.50;15.70;;;15.20;99.90;;;;;;2088981;28;20036;-71
2022/05/18 01:27:40;;;;;;;18.00;16.10;;;15.20;99.90;;;;;;2089132;28;20463;-70
2022/05/18 01:28:50;;;;;;;18.05;16.15;;;15.20;99.90;;;;;;2089128;28;20033;-70
2022/05/18 01:29:52;;;;;;;18.17;16.33;;;15.20;99.90;;;;;;2089047;28;20028;-71
2022/05/18 01:30:53;;;;;;;18.77;16.33;;;15.10;99.90;;;;;;2088874;28;20087;-70
2022/05/18 01:32:03;;;;;;;17.98;16.15;;;15.10;99.90;;;;;;2088976;28;20496;-71
2022/05/18 01:33:06;;;;;;;18.23;16.33;;;15.10;99.90;;;;;;2088810;28;20032;-70
2022/05/18 01:34:07;;;;;;;18.05;16.15;;;15.10;99.90;;;;;;2088908;28;20040;-70
2022/05/18 01:35:09;;;;;;;17.08;15.48;;;15.10;99.90;;;;;;2088557;28;20040;-71
2022/05/18 01:36:10;;;;;;;17.95;16.05;;;15.10;99.90;;;;;;2088895;28;20025;-69
2022/05/18 01:37:12;;;;;;;18.13;16.42;;;15.10;99.90;;;;;;2088766;28;20422;-69
2022/05/18 01:38:13;;;;;;;18.15;16.35;;;15.10;99.90;;;;;;2088986;28;20079;-70
2022/05/18 01:39:48;;;;;;;17.75;15.55;;;15.10;99.90;;;;;;2088934;28;20028;-70
2022/05/18 01:41:00;;;;;;;18.15;16.30;;;15.10;99.90;;;;;;2079781;28;20047;-71
2022/05/18 01:42:16;;;;;;;16.85;15.15;;;15.00;99.90;;;;;;2088946;28;20039;-71
2022/05/18 01:43:33;;;;;;;16.80;15.23;;;15.10;99.90;;;;;;2088859;28;20017;-71
2022/05/18 01:44:37;;;;;;;17.70;15.93;;;15.00;99.90;;;;;;2088985;28;20822;-71
2022/05/18 01:45:38;;;;;;;18.10;16.20;;;15.00;99.90;;;;;;2088105;28;20028;-71
2022/05/18 01:46:38;;;;;;;18.05;16.35;;;15.10;99.90;;;;;;2088387;28;20119;-72
2022/05/18 01:47:40;;;;;;;18.15;16.33;;;15.10;99.90;;;;;;2088987;28;20824;-70
2022/05/18 01:48:47;;;;;;;18.33;15.75;;;15.10;99.90;;;;;;2088861;28;20021;-70
2022/05/18 01:49:51;;;;;;;18.13;16.20;;;15.10;99.90;;;;;;2088916;28;20068;-71
2022/05/18 01:50:52;;;;;;;18.00;16.20;;;15.10;99.90;;;;;;2088946;28;20052;-70
2022/05/18 01:51:54;;;;;;;17.30;15.65;;;15.10;99.90;;;;;;2088857;28;20079;-71
2022/05/18 01:52:55;;;;;;;18.75;16.80;;;15.10;99.90;;;;;;2088607;28;20507;-71
2022/05/18 01:53:56;;;;;;;19.45;17.45;;;15.10;99.90;;;;;;2088679;28;20025;-70
2022/05/18 01:54:56;;;;;;;18.75;16.70;;;15.10;99.90;;;;;;2088733;28;20080;-70
2022/05/18 01:55:57;;;;;;;18.20;16.30;;;15.10;99.90;;;;;;2088509;28;20561;-70
2022/05/18 01:56:58;;;;;;;18.25;16.42;;;15.10;99.90;;;;;;2088728;28;20036;-71
2022/05/18 01:57:59;;;;;;;18.92;16.77;;;15.10;99.90;;;;;;2088663;28;20108;-71
2022/05/18 01:59:00;;;;;;;18.48;16.35;;;15.10;99.90;;;;;;2087801;28;20106;-71
2022/05/18 02:00:01;;;;;;;17.33;15.63;;;15.10;99.90;;;;;;2079753;28;20120;-71
2022/05/18 02:01:03;;;;;;;18.13;15.90;;;15.10;99.90;;;;;;2087990;28;20032;-71
2022/05/18 02:02:07;;;;;;;17.48;15.68;;;15.10;99.90;;;;;;2088671;28;20068;-70
2022/05/18 02:03:08;;;;;;;17.75;15.63;;;15.10;99.90;;;;;;2088677;28;20064;-70
2022/05/18 02:04:08;;;;;;;17.75;15.98;;;15.10;99.90;;;;;;2088642;28;20021;-70
2022/05/18 02:05:09;;;;;;;18.88;16.95;;;15.10;99.90;;;;;;2087621;28;20412;-70
2022/05/18 02:06:10;;;;;;;17.70;16.00;;;15.10;99.90;;;;;;2088096;28;20033;-70
2022/05/18 02:07:11;;;;;;;17.30;15.50;;;15.10;99.90;;;;;;2088529;28;20037;-70
2022/05/18 02:08:17;;;;;;;18.02;16.27;;;15.10;99.90;;;;;;2088553;28;20107;-70
2022/05/18 02:09:20;;;;;;;17.95;16.08;;;15.10;99.90;;;;;;2088551;28;20033;-70
2022/05/18 02:10:21;;;;;;;19.27;16.60;;;15.10;99.90;;;;;;2088316;28;20040;-70
2022/05/18 02:11:21;;;;;;;17.95;16.17;;;15.10;99.90;;;;;;2088625;28;20144;-70
2022/05/18 02:12:22;;;;;;;17.80;15.90;;;15.20;99.90;;;;;;2088552;28;20041;-71
2022/05/18 02:13:23;;;;;;;18.38;16.58;;;15.10;99.90;;;;;;2088527;28;20029;-73
2022/05/18 02:14:24;;;;;;;18.35;16.45;;;15.10;99.90;;;;;;2088489;28;20475;-69
2022/05/18 02:15:25;;;;;;;18.98;16.95;;;15.10;99.90;;;;;;2087578;28;20029;-69
2022/05/18 02:16:26;;;;;;;18.30;16.50;;;15.20;99.90;;;;;;2087498;28;20037;-69
2022/05/18 02:17:27;;;;;;;18.58;16.63;;;15.20;99.90;;;;;;2088237;28;20037;-70
2022/05/18 02:18:30;;;;;;;19.35;17.30;;;15.10;99.90;;;;;;2088893;28;20029;-71
2022/05/18 02:19:31;;;;;;;18.42;16.63;;;15.20;99.90;;;;;;2088606;28;20044;-70
2022/05/18 02:20:31;;;;;;;18.10;16.38;;;15.20;99.90;;;;;;2088709;28;20068;-70
2022/05/18 02:21:32;;;;;;;18.17;16.38;;;15.10;99.90;;;;;;2088474;28;20033;-71
2022/05/18 02:22:33;;;;;;;19.20;17.30;;;15.20;99.90;;;;;;2088808;28;20094;-71
2022/05/18 02:23:35;;;;;;;19.15;17.15;;;15.10;99.90;;;;;;2088720;28;20489;-71
2022/05/18 02:24:35;;;;;;;18.90;16.90;;;15.10;99.90;;;;;;2089284;28;20040;-70
2022/05/18 02:25:37;;;;;;;19.83;17.63;;;15.10;99.90;;;;;;2088740;28;20094;-70
2022/05/18 02:26:38;;;;;;;19.45;17.30;;;15.10;99.90;;;;;;2088173;28;20531;-70
2022/05/18 02:27:39;;;;;;;19.70;17.67;;;15.10;99.90;;;;;;2088054;28;20033;-70
2022/05/18 02:28:40;;;;;;;18.23;16.50;;;15.10;99.90;;;;;;2088571;28;20029;-70
2022/05/18 02:29:41;;;;;;;21.30;19.00;;;15.00;99.90;;;;;;2088340;28;20044;-71
2022/05/18 02:30:41;;;;;;;20.77;18.60;;;15.00;99.90;;;;;;2088390;28;20033;-70
2022/05/18 02:31:42;;;;;;;20.60;18.45;;;15.00;99.90;;;;;;2088532;28;20086;-70
2022/05/18 02:32:43;;;;;;;19.58;17.58;;;15.00;99.90;;;;;;2088720;28;20539;-69
2022/05/18 02:33:44;;;;;;;19.33;17.35;;;15.00;99.90;;;;;;2088590;28;20056;-70
2022/05/18 02:34:44;;;;;;;18.73;16.77;;;15.00;99.90;;;;;;2088466;28;20032;-70
2022/05/18 02:35:45;;;;;;;19.70;17.25;;;14.90;99.90;;;;;;2087716;28;20032;-70
2022/05/18 02:36:45;;;;;;;18.15;16.35;;;14.90;99.90;;;;;;2087936;28;20021;-70
2022/05/18 02:37:46;;;;;;;19.45;17.27;;;14.80;99.90;;;;;;2088495;28;20020;-69
2022/05/18 02:38:47;;;;;;;18.50;16.60;;;14.80;99.90;;;;;;2088636;28;20360;-71
2022/05/18 02:39:48;;;;;;;25.70;17.73;;;14.80;99.90;;;;;;2087887;28;20021;-70
2022/05/18 02:40:48;;;;;;;19.92;17.85;;;14.80;99.90;;;;;;2087875;28;20500;-69
2022/05/18 02:41:50;;;;;;;19.15;17.15;;;14.70;99.90;;;;;;2088489;28;20039;-71
2022/05/18 02:42:51;;;;;;;19.20;17.27;;;14.70;99.90;;;;;;2088836;28;20033;-70
2022/05/18 02:43:52;;;;;;;18.50;16.60;;;14.70;99.90;;;;;;2088231;28;20029;-70
2022/05/18 02:44:53;;;;;;;19.92;17.30;;;14.70;99.90;;;;;;2088113;28;20511;-70
2022/05/18 02:46:08;;;;;;;19.83;17.73;;;14.70;99.90;;;;;;2087625;28;20033;-69
2022/05/18 02:47:09;;;;;;;19.80;17.70;;;14.70;99.90;;;;;;2081912;28;20025;-70
2022/05/18 02:48:11;;;;;;;19.52;17.52;;;14.60;99.90;;;;;;2088083;28;20036;-70
2022/05/18 02:49:11;;;;;;;20.50;18.30;;;14.60;99.90;;;;;;2088529;28;20017;-70
2022/05/18 02:50:12;;;;;;;20.27;18.27;;;14.60;99.90;;;;;;2088132;28;20112;-70
2022/05/18 02:51:14;;;;;;;18.35;16.45;;;14.60;99.90;;;;;;2088420;28;20021;-70
2022/05/18 02:52:15;;;;;;;19.60;17.60;;;14.60;99.90;;;;;;2088652;28;20096;-71
2022/05/18 02:53:15;;;;;;;18.77;16.95;;;14.60;99.90;;;;;;2088149;28;20029;-71
2022/05/18 02:56:54;;;;;;;19.85;17.85;;;14.50;99.90;;;;;;2088273;28;20113;-69
2022/05/18 02:57:55;;;;;;;21.88;18.75;;;14.50;99.90;;;;;;2087918;28;20099;-70
2022/05/18 02:58:56;;;;;;;19.45;17.05;;;14.50;99.90;;;;;;2087782;28;20111;-70
2022/05/18 02:59:58;;;;;;;19.60;17.50;;;14.50;99.90;;;;;;2087680;28;20624;-72
2022/05/18 03:01:00;;;;;;;19.70;17.70;;;14.50;99.90;;;;;;2088032;28;20033;-69
2022/05/18 03:02:02;;;;;;;19.88;17.77;;;14.50;99.90;;;;;;2088313;28;20033;-71
2022/05/18 03:03:02;;;;;;;19.50;17.50;;;14.50;99.90;;;;;;2088141;28;20111;-71
2022/05/18 03:04:03;;;;;;;19.38;17.45;;;14.50;99.90;;;;;;2088137;28;20033;-69
2022/05/18 03:05:04;;;;;;;19.20;17.30;;;14.50;99.90;;;;;;2087909;28;20456;-69
2022/05/18 03:06:08;;;;;;;24.40;22.00;;;14.50;99.90;;;;;;2088292;28;20671;-69
2022/05/18 03:07:09;;;;;;;24.00;21.60;;;14.50;99.90;;;;;;2088378;28;20029;-69
2022/05/18 03:08:10;;;;;;;22.40;20.20;;;14.50;99.90;;;;;;2088204;28;20021;-71
2022/05/18 03:09:11;;;;;;;21.85;19.52;;;14.40;99.90;;;;;;2088224;28;20510;-69
2022/05/18 03:10:15;;;;;;;21.55;19.10;;;14.40;99.90;;;;;;2088466;28;20033;-68
2022/05/18 03:11:18;;;;;;;20.63;18.10;;;14.40;99.90;;;;;;2088280;28;20067;-70
2022/05/18 03:12:18;;;;;;;20.30;18.15;;;14.40;99.90;;;;;;2088453;28;20033;-68
2022/05/18 03:13:19;;;;;;;19.85;17.95;;;14.40;99.90;;;;;;2087966;28;20372;-70
2022/05/18 03:14:19;;;;;;;20.05;18.02;;;14.40;99.90;;;;;;2088201;28;20024;-70
2022/05/18 03:15:20;;;;;;;19.85;17.70;;;14.40;99.90;;;;;;2087923;28;20079;-70
2022/05/18 03:16:22;;;;;;;19.52;17.52;;;14.40;99.90;;;;;;2088103;28;20048;-71
2022/05/18 03:17:23;;;;;;;20.05;17.75;;;14.40;99.90;;;;;;2088104;28;20025;-70
2022/05/18 03:18:25;;;;;;;18.60;16.67;;;14.40;99.90;;;;;;2088007;28;20364;-70
2022/05/18 03:19:26;;;;;;;19.40;17.40;;;14.40;99.90;;;;;;2087996;28;20060;-70
2022/05/18 03:24:24;;;;;;;20.98;17.70;;;14.40;99.90;;;;;;2087033;28;20032;-69
2022/05/18 03:25:25;;;;;;;19.90;17.90;;;14.40;99.90;;;;;;2087197;28;20056;-69
2022/05/18 03:26:26;;;;;;;20.02;17.60;;;14.40;99.90;;;;;;2088119;28;20039;-69
2022/05/18 03:27:26;;;;;;;19.70;17.70;;;14.40;99.90;;;;;;2087979;28;20028;-69
2022/05/18 03:28:28;;;;;;;19.45;17.23;;;14.30;99.90;;;;;;2088000;28;20037;-69
2022/05/18 03:29:28;;;;;;;19.05;17.13;;;14.30;99.90;;;;;;2087936;28;20033;-69
2022/05/18 03:30:29;;;;;;;18.63;16.60;;;14.30;99.90;;;;;;2087908;28;20024;-70
2022/05/18 03:31:30;;;;;;;20.42;18.20;;;14.30;99.90;;;;;;2087970;28;20375;-69
2022/05/18 03:32:30;;;;;;;19.90;17.88;;;14.30;99.90;;;;;;2087258;28;20460;-69
2022/05/18 03:33:31;;;;;;;19.85;17.83;;;14.30;99.90;;;;;;2087274;28;20376;-69
2022/05/18 03:34:33;;;;;;;19.08;17.17;;;14.30;99.90;;;;;;2087258;28;20483;-69
2022/05/18 03:35:33;;;;;;;20.17;18.08;;;14.30;99.90;;;;;;2087026;28;20029;-69
2022/05/18 03:36:34;;;;;;;19.50;17.40;;;14.30;99.90;;;;;;2087399;28;20052;-69
2022/05/18 03:37:35;;;;;;;19.50;17.50;;;14.30;99.90;;;;;;2087381;28;20116;-69
2022/05/18 03:38:35;;;;;;;20.17;18.10;;;14.30;99.90;;;;;;2087951;28;20040;-69
2022/05/18 03:39:36;;;;;;;19.08;17.08;;;14.30;99.90;;;;;;2087933;28;20025;-69
2022/05/18 03:40:37;;;;;;;19.10;17.10;;;14.30;99.90;;;;;;2087882;28;20033;-69
2022/05/18 03:41:39;;;;;;;19.10;17.25;;;14.30;99.90;;;;;;2087941;28;20068;-70
2022/05/18 03:42:40;;;;;;;20.58;17.45;;;14.30;99.90;;;;;;2087826;28;20479;-71
2022/05/18 03:43:40;;;;;;;19.58;17.58;;;14.30;99.90;;;;;;2087978;28;20025;-70
2022/05/18 03:44:41;;;;;;;20.30;18.20;;;14.30;99.90;;;;;;2088128;28;20774;-71
2022/05/18 03:45:42;;;;;;;20.13;18.10;;;14.30;99.90;;;;;;2087660;28;20055;-70
2022/05/18 03:46:42;;;;;;;19.45;17.35;;;14.30;99.90;;;;;;2087176;28;20029;-71
2022/05/18 03:47:43;;;;;;;20.17;18.08;;;14.30;99.90;;;;;;2087288;28;20465;-70
2022/05/18 03:48:43;;;;;;;21.15;18.05;;;14.30;99.90;;;;;;2087910;28;20040;-71
2022/05/18 03:49:44;;;;;;;21.70;19.40;;;14.30;99.90;;;;;;2087291;28;20514;-70
2022/05/18 03:50:47;;;;;;;20.90;18.75;;;14.30;99.90;;;;;;2078880;28;20056;-70
2022/05/18 03:51:49;;;;;;;20.77;18.55;;;14.30;99.90;;;;;;2087449;28;20033;-70
2022/05/18 03:52:50;;;;;;;21.38;19.08;;;14.30;99.90;;;;;;2087909;28;20039;-71
2022/05/18 03:53:51;;;;;;;22.75;19.10;;;14.30;99.90;;;;;;2087012;28;20021;-70
2022/05/18 03:54:52;;;;;;;20.05;17.95;;;14.20;99.90;;;;;;2087492;28;20124;-70
2022/05/18 03:55:53;;;;;;;20.63;18.25;;;14.20;99.90;;;;;;2087688;28;20040;-70
2022/05/18 03:56:53;;;;;;;20.30;18.17;;;14.20;99.90;;;;;;2088492;28;20028;-70
2022/05/18 03:57:54;;;;;;;20.35;18.33;;;14.20;99.90;;;;;;2088203;28;20098;-73
2022/05/18 03:58:55;;;;;;;19.55;17.48;;;14.30;99.90;;;;;;2087703;28;20029;-70
2022/05/18 03:59:55;;;;;;;20.45;17.38;;;14.30;99.90;;;;;;2087880;28;20029;-70
2022/05/18 04:01:00;;;;;;;19.92;17.92;;;14.30;99.90;;;;;;2087109;28;20104;-70
2022/05/18 04:02:00;;;;;;;19.52;17.63;;;14.30;99.90;;;;;;2087214;28;20026;-70
2022/05/18 04:03:02;;;;;;;20.98;18.15;;;14.40;99.90;;;;;;2087977;28;20115;-70
2022/05/18 04:04:02;;;;;;;19.10;17.20;;;14.40;99.90;;;;;;2087687;28;20036;-70
2022/05/18 04:05:03;;;;;;;18.75;16.75;;;14.40;99.90;;;;;;2087766;28;20414;-70
2022/05/18 04:06:05;;;;;;;17.80;16.02;;;14.40;99.90;;;;;;2087701;28;20406;-70
2022/05/18 04:07:05;;;;;;;19.33;17.15;;;14.50;99.90;;;;;;2087674;28;20086;-70
2022/05/18 04:08:08;;;;;;;20.73;18.05;;;14.50;99.90;;;;;;2087630;28;20187;-70
2022/05/18 04:09:08;;;;;;;18.27;16.48;;;14.60;99.90;;;;;;2087779;28;20048;-71
2022/05/18 04:10:10;;;;;;;19.38;16.58;;;14.70;99.90;;;;;;2087635;28;20078;-70
2022/05/18 04:11:12;;;;;;;20.25;17.42;;;14.90;99.90;;;;;;2087146;28;20037;-70
2022/05/18 04:12:13;;;;;;;22.27;17.15;;;15.00;99.90;;;;;;2087142;28;20056;-71
2022/05/18 04:13:17;;;;;;;18.58;16.23;;;15.30;99.90;;;;;;2087641;28;20140;-71
2022/05/18 04:14:18;;;;;;;18.23;15.63;;;15.50;99.90;;;;;;2087732;28;20563;-71
2022/05/18 04:15:18;;;;;;;17.10;14.90;;;15.70;99.90;;;;;;2087800;28;20036;-71
2022/05/18 04:16:19;;;;;;;15.77;14.25;;;16.00;99.90;;;;;;2088013;28;20039;-71
2022/05/18 04:17:21;;;;;;;16.33;14.63;;;16.20;99.90;;;;;;2088194;28;20053;-71
2022/05/18 04:18:23;;;;;;;16.02;14.40;;;16.40;99.90;;;;;;2087306;28;20036;-71
2022/05/18 04:19:24;;;;;;;15.88;14.25;;;16.60;99.90;;;;;;2087245;28;20040;-70
2022/05/18 04:20:25;;;;;;;15.27;13.73;;;16.80;99.90;;;;;;2087776;28;20033;-71
2022/05/18 04:21:26;;;;;;;19.25;15.73;;;16.90;99.90;;;;;;2087804;28;20115;-70
2022/05/18 04:22:27;;;;;;;16.33;14.63;;;17.00;99.90;;;;;;2086947;28;20551;-70
2022/05/18 04:23:28;;;;;;;16.90;14.75;;;17.10;99.90;;;;;;2087063;28;20036;-71
2022/05/18 04:24:29;;;;;;;16.88;15.18;;;17.10;99.90;;;;;;2087589;28;20036;-71
2022/05/18 04:25:29;;;;;;;18.27;15.30;;;17.20;99.90;;;;;;2087337;28;20048;-70
2022/05/18 04:26:30;;;;;;;16.88;14.30;;;17.20;99.90;;;;;;2087813;28;20033;-69
2022/05/18 04:27:31;;;;;;;16.52;14.00;;;17.30;99.90;;;;;;2087790;28;20040;-70
2022/05/18 04:28:32;;;;;;;16.27;13.38;;;17.30;99.90;;;;;;2087692;28;20044;-70
2022/05/18 04:29:33;;;;;;;14.75;12.75;;;17.30;99.90;;;;;;2087677;28;20026;-70
2022/05/18 04:30:35;;;;;;;13.90;12.35;;;17.40;99.90;;;;;;2087611;28;20219;-70
2022/05/18 04:31:35;;;;;;;14.38;12.85;;;17.50;99.90;;;;;;2087618;28;20581;-70
2022/05/18 04:32:40;;;;;;;13.93;12.52;;;17.60;99.90;;;;;;2087539;28;20538;-70
2022/05/18 04:33:40;;;;;;;13.95;12.65;;;17.80;99.90;;;;;;2087754;28;20036;-70
2022/05/18 04:34:41;;;;;;;14.02;12.68;;;18.00;99.90;;;;;;2087743;28;20052;-70
2022/05/18 04:35:41;;;;;;;15.07;13.32;;;18.10;99.90;;;;;;2086803;28;20044;-70
2022/05/18 04:36:43;;;;;;;14.75;13.00;;;18.20;99.90;;;;;;2086992;28;20672;-70
2022/05/18 04:37:43;;;;;;;16.33;12.90;;;18.30;99.90;;;;;;2087929;28;20471;-70
2022/05/18 04:38:44;;;;;;;15.25;12.93;;;18.40;99.90;;;;;;2087778;28;20032;-70
2022/05/18 04:39:45;;;;;;;12.98;11.68;;;18.50;99.90;;;;;;2089119;28;20039;-70
2022/05/18 04:40:46;;;;;;;13.30;11.60;;;18.70;99.90;;;;;;2089346;28;20021;-71
2022/05/18 04:41:47;;;;;;;15.23;11.88;;;18.90;99.90;;;;;;2089721;28;20514;-69
2022/05/18 04:42:48;;;;;;;12.70;11.40;;;19.00;99.90;;;;;;2089530;28;20125;-71
2022/05/18 04:43:49;;;;;;;11.68;10.48;;;19.20;99.90;;;;;;2089495;28;20448;-72
2022/05/18 04:44:50;;;;;;;12.15;10.95;;;19.40;99.90;;;;;;2089432;28;20037;-69
2022/05/18 04:45:52;;;;;;;11.95;10.70;;;19.60;99.90;;;;;;2089028;28;20037;-71
2022/05/18 04:46:55;;;;;;;14.13;10.57;;;19.70;99.90;;;;;;2089188;28;20033;-70
2022/05/18 04:47:56;;;;;;;11.52;10.43;;;19.80;99.90;;;;;;2088799;28;20021;-70
2022/05/18 04:48:56;;;;;;;11.57;9.93;;;19.90;99.90;;;;;;2088904;28;20029;-69
2022/05/18 04:49:57;;;;;;;12.02;10.10;;;20.00;99.90;;;;;;2089233;28;20044;-71
2022/05/18 04:50:59;;;;;;;12.68;10.57;;;20.10;99.90;;;;;;2089474;28;20123;-71
2022/05/18 04:52:01;;;;;;;13.27;10.90;;;20.10;99.90;;;;;;2088964;28;20036;-70
2022/05/18 04:53:01;;;;;;;13.02;10.50;;;20.10;99.90;;;;;;2088893;28;20028;-71
2022/05/18 04:54:02;;;;;;;10.93;9.93;;;20.00;99.90;;;;;;2088911;28;20117;-70
2022/05/18 04:55:04;;;;;;;11.27;10.07;;;20.10;99.90;;;;;;2088674;28;20530;-70
2022/05/18 04:56:06;;;;;;;12.43;10.23;;;20.10;99.90;;;;;;2089757;28;20051;-68
2022/05/18 04:57:06;;;;;;;12.25;10.23;;;20.10;99.90;;;;;;2089639;28;20060;-69
2022/05/18 04:58:07;;;;;;;11.27;10.10;;;20.30;99.90;;;;;;2088725;28;20525;-70
2022/05/18 04:59:07;;;;;;;13.90;10.13;;;20.30;99.90;;;;;;2088656;28;20033;-70
2022/05/18 05:00:12;;;;;;;13.95;11.93;;;20.50;99.90;;;;;;2089306;28;20017;-70
2022/05/18 05:01:13;;;;;;;16.23;12.57;;;20.60;99.90;;;;;;2088424;28;20028;-72
2022/05/18 05:02:14;;;;;;;14.98;11.98;;;20.60;99.90;;;;;;2088607;28;20036;-70
2022/05/18 05:03:15;;;;;;;14.65;11.20;;;20.70;99.90;;;;;;2089245;28;20017;-72
2022/05/18 05:04:15;;;;;;;14.60;12.07;;;20.70;99.90;;;;;;2089438;28;20116;-72
2022/05/18 05:05:16;;;;;;;13.10;11.30;;;20.80;99.90;;;;;;2089068;28;20028;-70
2022/05/18 05:06:17;;;;;;;13.65;11.70;;;20.70;99.90;;;;;;2080447;28;20025;-71
2022/05/18 05:07:17;;;;;;;12.93;11.63;;;20.50;99.50;;;;;;2080675;28;20037;-71
2022/05/18 05:08:19;;;;;;;15.63;11.20;;;20.40;99.90;;;;;;2088618;28;20037;-69
2022/05/18 05:09:22;;;;;;;14.15;12.65;;;20.30;99.90;;;;;;2089242;28;20033;-71
2022/05/18 05:10:23;;;;;;;13.40;11.63;;;20.20;99.90;;;;;;2088460;28;20124;-70
2022/05/18 05:11:24;;;;;;;11.82;10.35;;;20.20;99.90;;;;;;2088581;28;20017;-72
2022/05/18 05:12:26;;;;;;;11.65;10.45;;;20.20;99.90;;;;;;2088591;28;20036;-70
2022/05/18 05:13:26;;;;;;;13.70;10.48;;;20.20;99.90;;;;;;2088737;28;20045;-70
2022/05/18 05:14:27;;;;;;;11.27;10.23;;;20.20;99.90;;;;;;2089472;28;20106;-70
2022/05/18 05:15:28;;;;;;;13.23;10.73;;;20.20;99.90;;;;;;2089095;28;20439;-70
2022/05/18 05:16:29;;;;;;;12.40;10.05;;;20.20;99.90;;;;;;2088463;28;20448;-69
2022/05/18 05:17:30;;;;;;;11.57;10.15;;;20.20;99.90;;;;;;2088502;28;20021;-70
2022/05/18 05:18:31;;;;;;;13.77;10.13;;;20.20;99.90;;;;;;2089065;28;20690;-70
2022/05/18 05:19:34;;;;;;;12.07;10.32;;;20.30;99.90;;;;;;2088967;28;20045;-70
2022/05/18 05:20:41;;;;;;;11.30;10.10;;;20.30;99.90;;;;;;2088880;28;20140;-70
2022/05/18 05:21:42;;;;;;;11.60;10.40;;;20.30;99.90;;;;;;2089105;28;20060;-71
2022/05/18 05:22:43;;;;;;;13.45;10.52;;;20.40;99.70;;;;;;2088948;28;20029;-69
2022/05/18 05:23:43;;;;;;;11.77;10.00;;;20.30;99.70;;;;;;2089004;28;20032;-69